Accueil
METAR-TAF:

METAR-TAF

Aéroports :

Aéroport de Charleroi-Bruxelles-Sud

Charleroi, Belgique

latitude: 50-28N, longitude: 004-27E, altitude: 187 m

Observation

Le bulletin a été fait il y a 23 minutes, à 01:20 UTC
Vent 5 kt de ouest, variant entre sud-ouest et nord-ouest
Température 19°C
Humidité 68%
Pression 1015 hPa
Visibilité 10 km ou plus
pas de nuages en-dessous de 1500 mètres et pas de cumulonimbus.

METAR: EBCI 170120Z 27005KT 220V320 CAVOK 19/13 Q1015 NOSIG

Heure: 03:43 (01:43 UTC)

Prévision

Le bulletin a été fait il y a 2 heures et 38 minutes, à 23:05 UTC
Prévision valable du 17 à 00 UTC au 18 à 06 UTC
Vent 4 kt de ouest/sud-ouest
Visibilité 10 km ou plus
Quelques nuages à une hauteur de 4000 ft, Cumulus congestus.

TAF: EBCI 162305Z 1700/1806 24004KT 9999 FEW040TCU

Observations et prévisions météorologiques de plus de 4000 aéroports (messages METAR et TAF).

Les stations disponibles sont représentées par des disques jaunes et rouges sur la carte.

Passer la souris dessus pour voir le nom de la station.

Cliquer dessus pour voir les observations et prévisions météorologiques.

Pour changer de carte: cliquez sur les boutons verts avec une croix noire pour zoomer, sur le bouton vert avec un tiret pour effectuer un zoom arrière, ou sur les flèches vertes pour les cartes adjacentes.


METAR-TAF: